Terminal Aerodrome Forecast
Issued by NWS

Home | Current Version | Previous Version | Text Only | Print | Product List | Glossary Off
Versions: 1 2 3 4 5 6 7 8 9 10 11 12 13 14 15

000
FTUS42 KMHX 010852 AAA
TAFOAJ
TAF AMD
KOAJ 010852Z 0109/0206 21012G20KT P6SM -SHRA OVC015
     FM011100 27007KT P6SM SCT015 BKN025
     FM011400 29007KT P6SM SKC
      AMD LTD TO CLD VIS AND WIND=

USA.gov is the U.S. government's official web portal to all federal, state and local government web resources and services.